Time;durP1;ratioP1;P1;durP2;ratioP2;P2;SDS_P1;SDS_P2;PMS_P1;PMS_P2;Temp;Humidity;BMP_temperature;BMP_pressure;BME280_temperature;BME280_humidity;BME280_pressure;Samples;Min_cycle;Max_cycle;Signal;HPM_P1;HPM_P2
2023/03/24 00:02:06;;;;;;;11.67;3.80;;;;;;;17.81;76.97;99730.97;5049651;28;20025;-66
2023/03/24 00:04:33;;;;;;;7.57;3.57;;;;;;;18.12;78.19;99734.47;5051334;28;20020;-66
2023/03/24 00:07:00;;;;;;;8.82;3.85;;;;;;;18.31;75.61;99728.94;5050112;28;20108;-66
2023/03/24 00:09:28;;;;;;;8.23;3.83;;;;;;;18.45;76.68;99720.19;5049849;28;20025;-66
2023/03/24 00:11:55;;;;;;;9.65;3.90;;;;;;;18.77;72.06;99698.84;5050710;28;20447;-66
2023/03/24 00:14:20;;;;;;;13.13;4.10;;;;;;;18.44;74.15;99719.34;5049708;28;20391;-66
2023/03/24 00:16:46;;;;;;;8.07;3.63;;;;;;;18.25;75.22;99716.09;5049861;28;20025;-67
2023/03/24 00:19:13;;;;;;;7.90;3.55;;;;;;;18.14;75.36;99712.28;5049875;28;20032;-66
2023/03/24 00:21:40;;;;;;;12.23;3.90;;;;;;;18.07;74.94;99700.38;5050042;28;20538;-66
2023/03/24 00:24:07;;;;;;;7.57;3.33;;;;;;;17.62;77.24;99700.28;5049291;28;20493;-66
2023/03/24 00:26:37;;;;;;;8.60;3.80;;;;;;;18.53;72.44;99698.56;5049350;28;20036;-66
2023/03/24 00:29:04;;;;;;;6.03;3.50;;;;;;;17.36;80.82;99698.28;5051112;28;20523;-66
2023/03/24 00:31:30;;;;;;;6.75;3.47;;;;;;;18.55;73.94;99683.47;5049873;28;20033;-66
2023/03/24 00:33:55;;;;;;;10.32;3.55;;;;;;;17.83;74.80;99688.56;5050077;28;20388;-66
2023/03/24 00:36:24;;;;;;;5.00;3.10;;;;;;;18.67;70.65;99681.81;5049604;28;20075;-66
2023/03/24 00:38:50;;;;;;;9.75;4.13;;;;;;;18.11;74.46;99691.31;5050158;28;20100;-66
2023/03/24 00:41:18;;;;;;;5.80;3.55;;;;;;;18.01;75.10;99687.53;5050819;28;20051;-66
2023/03/24 00:43:47;;;;;;;5.45;3.72;;;;;;;17.77;76.67;99680.06;5049704;28;20029;-66
2023/03/24 00:46:26;;;;;;;7.55;3.17;;;;;;;17.73;77.71;99675.91;5048753;28;20025;-65
2023/03/24 00:49:05;;;;;;;6.45;2.80;;;;;;;18.37;73.88;99665.13;5050513;28;20412;-65
2023/03/24 00:51:35;;;;;;;8.15;3.70;;;;;;;18.40;73.27;99669.38;5049642;28;20119;-66
2023/03/24 00:54:04;;;;;;;10.43;3.60;;;;;;;18.09;74.07;99669.44;5048663;28;20032;-66
2023/03/24 00:56:31;;;;;;;5.93;3.55;;;;;;;18.10;74.37;99659.69;5050866;28;20028;-66
2023/03/24 00:58:57;;;;;;;5.25;3.47;;;;;;;18.38;72.67;99650.94;5050287;28;20473;-65
2023/03/24 01:01:28;;;;;;;9.77;3.25;;;;;;;18.35;74.38;99648.47;5049614;28;20186;-66
2023/03/24 01:03:55;;;;;;;8.93;3.40;;;;;;;17.21;79.85;99668.31;5050293;28;20025;-65
2023/03/24 01:06:22;;;;;;;11.07;3.90;;;;;;;17.73;76.56;99649.47;5050310;28;20480;-66
2023/03/24 01:08:49;;;;;;;9.63;3.95;;;;;;;17.16;82.41;99646.59;5049519;28;20061;-66
2023/03/24 01:11:15;;;;;;;8.98;3.95;;;;;;;17.78;79.02;99642.13;5048932;28;20031;-66
2023/03/24 01:13:41;;;;;;;5.20;3.15;;;;;;;18.70;74.49;99639.28;5050474;28;20384;-66
2023/03/24 01:16:07;;;;;;;5.15;4.38;;;;;;;17.30;79.65;99642.22;5047652;28;20029;-66
2023/03/24 01:18:33;;;;;;;6.65;3.47;;;;;;;18.17;76.47;99639.03;5049287;28;20345;-66
2023/03/24 01:21:00;;;;;;;8.93;3.53;;;;;;;18.16;77.01;99634.66;5047815;28;20369;-65
2023/03/24 01:23:26;;;;;;;9.95;3.85;;;;;;;18.21;76.20;99637.91;5048657;28;20369;-66
2023/03/24 01:25:53;;;;;;;7.32;3.30;;;;;;;18.04;75.68;99653.00;5048482;28;20044;-65
2023/03/24 01:28:23;;;;;;;13.07;3.40;;;;;;;17.69;76.50;99653.22;5047825;28;20063;-66
2023/03/24 01:30:49;;;;;;;4.22;3.58;;;;;;;18.31;73.54;99644.31;5049020;28;20511;-66
2023/03/24 01:33:15;;;;;;;6.63;3.50;;;;;;;17.57;78.80;99652.16;5049844;28;20055;-66
2023/03/24 01:35:40;;;;;;;5.53;3.17;;;;;;;18.77;74.82;99656.50;5047960;28;20024;-66
2023/03/24 01:38:10;;;;;;;4.78;2.83;;;;;;;18.67;73.33;99648.28;5047807;28;20028;-67
2023/03/24 01:40:39;;;;;;;7.40;3.15;;;;;;;18.24;77.24;99638.53;5048757;28;20384;-66
2023/03/24 01:43:08;;;;;;;7.95;3.53;;;;;;;18.41;76.18;99660.47;5048714;28;20021;-66
2023/03/24 01:45:49;;;;;;;5.15;3.30;;;;;;;18.80;72.78;99667.72;5049960;28;20029;-65
2023/03/24 01:48:20;;;;;;;5.50;3.67;;;;;;;18.20;77.07;99686.44;5049116;28;20049;-66
2023/03/24 01:50:53;;;;;;;6.40;3.72;;;;;;;18.14;81.08;99696.44;5047567;28;20025;-65
2023/03/24 01:53:20;;;;;;;4.50;2.55;;;;;;;17.15;82.10;99705.63;5048037;28;20028;-65
2023/03/24 01:55:48;;;;;;;7.60;2.55;;;;;;;17.06;81.89;99702.56;5048011;28;20029;-65
2023/03/24 01:58:15;;;;;;;4.88;2.05;;;;;;;17.23;77.90;99703.41;5048588;28;20104;-65
2023/03/24 02:00:41;;;;;;;5.20;1.70;;;;;;;17.79;75.35;99712.56;5048305;28;20029;-65
2023/03/24 02:03:16;;;;;;;5.60;1.37;;;;;;;18.14;72.38;99707.00;5047224;28;20025;-65
2023/03/24 02:05:44;;;;;;;3.53;1.13;;;;;;;17.44;70.98;99718.03;5049563;28;20028;-65
2023/03/24 02:08:24;;;;;;;4.63;1.42;;;;;;;17.79;69.88;99723.13;5048653;28;20118;-65
2023/03/24 02:10:51;;;;;;;3.60;1.30;;;;;;;16.85;70.76;99724.81;5047032;28;20075;-65
2023/03/24 02:13:16;;;;;;;4.40;1.47;;;;;;;18.19;67.66;99730.56;5047558;28;20048;-65
2023/03/24 02:16:13;;;;;;;3.20;1.20;;;;;;;16.90;69.71;99746.56;5047977;28;20024;-65
2023/03/24 02:18:43;;;;;;;4.07;0.93;;;;;;;16.72;69.52;99757.13;5047313;28;20464;-64
2023/03/24 02:21:24;;;;;;;5.33;1.73;;;;;;;17.32;68.67;99768.91;5047083;28;20036;-65
2023/03/24 02:24:06;;;;;;;11.90;1.70;;;;;;;16.68;68.98;99771.41;5047637;28;20033;-64
2023/03/24 02:26:50;;;;;;;8.07;1.60;;;;;;;17.38;66.89;99771.22;5046975;28;20405;-64
2023/03/24 02:29:18;;;;;;;9.73;1.40;;;;;;;16.79;64.16;99779.59;5047209;28;20032;-64
2023/03/24 02:32:15;;;;;;;7.70;2.27;;;;;;;17.45;61.87;99783.16;5048429;28;20606;-65
2023/03/24 02:34:55;;;;;;;4.87;1.50;;;;;;;16.15;69.13;99775.00;5047708;28;20025;-64
2023/03/24 02:37:28;;;;;;;4.10;1.00;;;;;;;15.61;68.62;99784.56;5048546;28;20469;-64
2023/03/24 02:40:15;;;;;;;9.13;1.67;;;;;;;17.96;60.09;99776.84;5046565;28;20048;-64
2023/03/24 02:43:08;;;;;;;3.03;1.43;;;;;;;17.09;62.51;99781.59;5047238;28;20029;-64
2023/03/24 02:45:39;;;;;;;9.03;1.57;;;;;;;16.50;61.91;99785.53;5046954;28;20044;-64
2023/03/24 02:48:07;;;;;;;6.73;1.73;;;;;;;17.65;58.73;99797.03;5046645;28;20122;-65
2023/03/24 02:51:12;;;;;;;15.57;2.10;;;;;;;15.74;66.47;99805.91;5047436;28;20028;-64
2023/03/24 02:53:52;;;;;;;9.90;2.43;;;;;;;15.17;69.42;99815.59;5045599;28;20128;-64
2023/03/24 02:56:34;;;;;;;10.83;3.27;;;;;;;15.96;66.30;99828.59;5048846;28;20059;-64
2023/03/24 02:59:08;;;;;;;15.47;3.10;;;;;;;16.56;63.91;99827.44;5048471;28;20025;-65
2023/03/24 03:01:39;;;;;;;10.93;3.73;;;;;;;17.13;62.14;99835.94;5046843;28;20279;-64
2023/03/24 03:04:17;;;;;;;13.03;3.63;;;;;;;16.57;64.85;99831.78;5046702;28;20196;-64
2023/03/24 03:06:50;;;;;;;11.70;3.43;;;;;;;16.04;67.40;99836.16;5046594;28;20029;-65
2023/03/24 03:09:18;;;;;;;14.88;3.30;;;;;;;16.34;64.95;99835.59;5046770;28;20408;-64
2023/03/24 03:11:47;;;;;;;12.47;2.83;;;;;;;16.83;61.38;99842.78;5048755;28;20091;-65
2023/03/24 03:14:31;;;;;;;11.30;2.47;;;;;;;16.29;65.02;99854.25;5046218;28;20116;-64
2023/03/24 03:17:03;;;;;;;9.73;2.13;;;;;;;16.27;65.35;99835.88;5048369;28;20542;-64
2023/03/24 03:19:33;;;;;;;9.05;1.92;;;;;;;16.38;65.26;99832.72;5048625;28;20491;-64
2023/03/24 03:22:02;;;;;;;19.77;2.03;;;;;;;15.28;70.28;99839.66;5046061;28;20065;-64
2023/03/24 03:24:38;;;;;;;9.63;2.13;;;;;;;16.02;66.60;99849.41;5047235;28;20061;-65
2023/03/24 03:27:09;;;;;;;10.87;2.00;;;;;;;16.40;64.81;99865.16;5046327;28;20028;-64
2023/03/24 03:29:39;;;;;;;10.13;1.87;;;;;;;16.31;62.81;99852.41;5047684;28;20049;-65
2023/03/24 03:32:08;;;;;;;12.50;1.70;;;;;;;16.49;62.29;99860.34;5046319;28;20906;-65
2023/03/24 03:35:01;;;;;;;7.73;1.80;;;;;;;15.63;67.28;99881.94;5046666;28;20364;-65
2023/03/24 03:37:32;;;;;;;8.57;2.13;;;;;;;15.51;66.75;99871.97;5047974;28;20033;-65
2023/03/24 03:40:29;;;;;;;10.83;1.50;;;;;;;15.72;68.83;99876.25;5048127;28;20029;-64
2023/03/24 03:42:55;;;;;;;8.80;1.70;;;;;;;16.13;65.60;99869.09;5045236;28;20041;-65
2023/03/24 03:45:21;;;;;;;8.73;1.80;;;;;;;16.17;66.20;99871.53;5047837;28;20029;-65
2023/03/24 03:47:47;;;;;;;13.50;1.80;;;;;;;16.78;61.86;99894.00;5047655;28;20404;-65
2023/03/24 03:50:12;;;;;;;26.37;2.97;;;;;;;16.32;65.10;99883.13;5045631;28;20031;-64
2023/03/24 03:52:38;;;;;;;11.77;1.87;;;;;;;15.95;65.81;99887.53;5047128;28;20029;-65
2023/03/24 03:55:06;;;;;;;12.87;2.83;;;;;;;15.80;67.00;99888.22;5047020;28;20021;-65
2023/03/24 03:57:32;;;;;;;7.60;1.97;;;;;;;16.68;63.29;99889.25;5051281;28;20110;-65
2023/03/24 04:00:10;;;;;;;19.87;2.70;;;;;;;16.59;64.06;99883.50;5050114;28;20063;-65
2023/03/24 04:02:39;;;;;;;13.60;2.00;;;;;;;16.58;62.42;99876.56;5050608;28;20522;-65
2023/03/24 04:05:35;;;;;;;18.53;2.77;;;;;;;15.89;65.05;99887.81;5049236;28;20469;-65
2023/03/24 04:08:24;;;;;;;20.97;3.27;;;;;;;16.55;62.50;99881.13;5049862;28;20025;-64
2023/03/24 04:11:04;;;;;;;12.80;2.53;;;;;;;15.51;63.56;99885.13;5049394;28;20025;-64
2023/03/24 04:13:48;;;;;;;21.37;3.10;;;;;;;15.99;65.03;99897.00;5050389;28;20028;-64
2023/03/24 04:16:51;;;;;;;13.33;2.27;;;;;;;15.70;65.44;99893.03;5051120;28;20100;-64
2023/03/24 04:19:40;;;;;;;;;;;;;;;16.77;60.57;99902.88;5009273;28;20121;-65
2023/03/24 04:22:22;;;;;;;17.87;3.20;;;;;;;15.67;65.08;99907.22;5049280;28;19978;-64
2023/03/24 04:24:58;;;;;;;24.70;2.90;;;;;;;16.39;61.89;99910.91;5049148;28;20374;-64
2023/03/24 04:27:38;;;;;;;24.53;2.80;;;;;;;16.45;61.52;99912.38;5049440;28;20024;-65
2023/03/24 04:30:05;;;;;;;20.97;2.87;;;;;;;15.55;61.64;99937.63;5049188;28;20087;-65
2023/03/24 04:32:57;;;;;;;24.90;3.73;;;;;;;15.97;61.45;99927.84;5049390;28;20506;-64
2023/03/24 04:35:32;;;;;;;21.87;4.60;;;;;;;15.77;62.64;99916.41;5049580;28;20021;-65
2023/03/24 04:38:17;;;;;;;22.20;2.73;;;;;;;16.33;61.25;99926.16;5048967;28;20504;-65
2023/03/24 04:40:48;;;;;;;22.83;3.43;;;;;;;15.66;63.11;99937.13;5051353;28;20029;-65
2023/03/24 04:43:16;;;;;;;18.33;3.07;;;;;;;15.74;63.18;99942.91;5049338;28;20115;-65
2023/03/24 04:45:48;;;;;;;26.73;3.23;;;;;;;15.12;64.71;99930.75;5050279;28;20021;-64
2023/03/24 04:48:16;;;;;;;13.05;2.80;;;;;;;15.82;62.71;99933.81;5050335;28;20045;-64
2023/03/24 04:50:47;;;;;;;24.43;3.80;;;;;;;15.83;63.39;99935.53;5050908;28;20021;-65
2023/03/24 04:53:12;;;;;;;26.23;4.10;;;;;;;15.85;64.37;99944.22;5049736;28;20280;-65
2023/03/24 04:56:02;;;;;;;19.90;3.17;;;;;;;15.33;65.20;99950.88;5049587;28;20025;-65
2023/03/24 04:58:28;;;;;;;31.00;4.47;;;;;;;15.07;68.26;99957.25;5049393;28;20025;-64
2023/03/24 05:00:55;;;;;;;20.97;3.97;;;;;;;15.50;68.42;99962.44;5048523;28;20021;-64
2023/03/24 05:03:21;;;;;;;28.33;3.77;;;;;;;15.73;66.71;99967.53;5050215;28;20449;-64
2023/03/24 05:05:49;;;;;;;24.03;2.60;;;;;;;15.11;67.44;99979.88;5048368;28;20043;-64
2023/03/24 05:08:16;;;;;;;31.03;3.57;;;;;;;15.47;67.73;99966.06;5048013;28;20021;-64
2023/03/24 05:10:42;;;;;;;30.53;4.10;;;;;;;15.01;70.60;99961.00;5049284;28;20025;-64
2023/03/24 05:13:08;;;;;;;31.17;4.33;;;;;;;15.63;67.92;99973.28;5047776;28;20554;-65
2023/03/24 05:15:34;;;;;;;19.97;3.17;;;;;;;15.09;66.62;99976.47;5049101;28;20040;-65
2023/03/24 05:18:00;;;;;;;23.47;3.30;;;;;;;14.58;69.65;99982.00;5048770;28;20588;-65
2023/03/24 05:20:26;;;;;;;28.50;3.57;;;;;;;15.57;65.30;99977.03;5049297;28;20123;-64
2023/03/24 05:22:51;;;;;;;26.30;3.03;;;;;;;14.82;67.17;99983.75;5050468;28;20025;-65
2023/03/24 05:25:17;;;;;;;28.97;5.90;;;;;;;15.48;65.83;100002.00;5048392;28;20104;-64
2023/03/24 05:27:43;;;;;;;18.20;2.20;;;;;;;14.98;69.02;99995.34;5048162;28;20469;-64
2023/03/24 05:30:09;;;;;;;26.30;3.50;;;;;;;15.27;66.40;99998.53;5049340;28;20078;-65
2023/03/24 05:32:35;;;;;;;30.00;2.93;;;;;;;15.05;66.80;100002.06;5048767;28;20044;-65
2023/03/24 05:35:00;;;;;;;19.03;2.90;;;;;;;15.14;65.59;100005.22;5049103;28;20493;-65
2023/03/24 05:37:26;;;;;;;22.13;3.33;;;;;;;16.02;61.54;99999.66;5049843;28;20033;-65
2023/03/24 05:39:52;;;;;;;21.13;2.97;;;;;;;15.59;64.22;100001.53;5048641;28;20028;-65
2023/03/24 05:42:18;;;;;;;21.17;4.00;;;;;;;16.38;60.74;100004.13;5048825;28;20037;-65
2023/03/24 05:44:44;;;;;;;27.13;3.97;;;;;;;15.04;67.60;100010.00;5048594;28;20074;-65
2023/03/24 05:47:11;;;;;;;12.47;2.83;;;;;;;15.88;63.63;100023.13;5048962;28;20025;-65
2023/03/24 05:49:37;;;;;;;23.07;3.30;;;;;;;15.35;64.56;100021.91;5049074;28;20063;-65
2023/03/24 05:52:07;;;;;;;26.67;3.10;;;;;;;15.58;62.89;100018.28;5049429;28;20485;-65
2023/03/24 05:54:33;;;;;;;20.77;3.17;;;;;;;15.41;66.00;100019.88;5049733;28;20029;-65
2023/03/24 05:56:59;;;;;;;19.57;2.63;;;;;;;15.96;62.57;100026.25;5048512;28;20024;-65
2023/03/24 05:59:24;;;;;;;18.37;3.67;;;;;;;16.33;59.93;100029.84;5047834;28;20021;-65
2023/03/24 06:01:52;;;;;;;18.03;3.00;;;;;;;15.70;62.04;100030.91;5049278;28;20055;-65
2023/03/24 06:04:19;;;;;;;15.67;2.87;;;;;;;15.98;61.98;100039.38;5046744;28;20025;-65
2023/03/24 06:06:47;;;;;;;16.77;2.63;;;;;;;15.60;62.07;100029.59;5049449;28;20029;-65
2023/03/24 06:09:15;;;;;;;14.27;2.80;;;;;;;15.00;64.61;100029.47;5048616;28;20029;-65
2023/03/24 06:11:42;;;;;;;21.43;3.93;;;;;;;16.00;61.57;100038.38;5047686;28;20021;-65
2023/03/24 06:14:07;;;;;;;22.07;3.30;;;;;;;16.27;59.43;100038.06;5048770;28;20021;-65
2023/03/24 06:16:37;;;;;;;26.27;3.13;;;;;;;16.42;59.15;100039.97;5048635;28;20032;-64
2023/03/24 06:19:06;;;;;;;20.87;4.90;;;;;;;15.69;61.45;100047.63;5048056;28;20023;-64
2023/03/24 06:21:32;;;;;;;24.17;2.93;;;;;;;15.22;63.87;100050.50;5048140;28;20107;-65
2023/03/24 06:23:58;;;;;;;19.90;2.93;;;;;;;16.37;58.96;100055.16;5046768;28;20108;-65
2023/03/24 06:26:25;;;;;;;23.33;3.20;;;;;;;16.51;58.03;100051.00;5047421;28;20127;-65
2023/03/24 06:28:53;;;;;;;22.07;2.60;;;;;;;16.07;58.72;100060.94;5047204;28;20025;-65
2023/03/24 06:31:20;;;;;;;18.60;3.10;;;;;;;15.59;62.05;100070.88;5047931;28;20036;-65
2023/03/24 06:33:47;;;;;;;21.63;2.97;;;;;;;16.22;59.32;100071.69;5047534;28;20503;-65
2023/03/24 06:36:13;;;;;;;15.90;2.63;;;;;;;16.49;57.48;100061.63;5047181;28;20028;-65
2023/03/24 06:38:39;;;;;;;16.17;2.47;;;;;;;16.18;58.70;100080.66;5048338;28;20067;-65
2023/03/24 06:41:05;;;;;;;20.67;2.97;;;;;;;16.37;58.08;100075.41;5046747;28;20077;-65
2023/03/24 06:43:31;;;;;;;17.30;3.20;;;;;;;15.99;60.09;100084.13;5047521;28;20109;-65
2023/03/24 06:45:57;;;;;;;19.47;2.83;;;;;;;16.66;57.29;100076.66;5047822;28;20396;-66
2023/03/24 06:48:23;;;;;;;34.13;3.67;;;;;;;16.53;58.53;100084.31;5046516;28;20122;-65
2023/03/24 06:50:51;;;;;;;19.47;2.83;;;;;;;16.28;59.69;100089.88;5048703;28;20420;-65
2023/03/24 06:53:20;;;;;;;29.67;3.27;;;;;;;15.70;60.56;100072.19;5046317;28;20363;-65
2023/03/24 06:55:46;;;;;;;19.67;3.20;;;;;;;16.72;58.34;100071.13;5048489;28;20032;-65
2023/03/24 06:58:13;;;;;;;14.53;3.07;;;;;;;16.75;57.93;100084.16;5046910;28;20035;-66
2023/03/24 07:00:40;;;;;;;17.90;2.80;;;;;;;16.47;58.06;100094.28;5046826;28;20031;-65
2023/03/24 07:03:06;;;;;;;17.33;3.00;;;;;;;16.15;58.95;100099.25;5046845;28;20323;-65
2023/03/24 07:05:32;;;;;;;19.73;2.80;;;;;;;16.03;59.28;100098.88;5047138;28;20032;-65
2023/03/24 07:07:58;;;;;;;19.27;2.70;;;;;;;16.18;59.78;100104.38;5047813;28;20087;-65
2023/03/24 07:10:23;;;;;;;16.50;2.80;;;;;;;16.84;57.01;100103.97;5046752;28;20037;-65
2023/03/24 07:12:49;;;;;;;24.43;4.67;;;;;;;17.48;55.02;100104.41;5047687;28;20431;-66
2023/03/24 07:15:15;;;;;;;25.63;3.50;;;;;;;17.52;54.28;100102.50;5046725;28;20036;-64
2023/03/24 07:17:41;;;;;;;16.63;2.83;;;;;;;16.96;55.62;100113.13;5047243;28;20052;-65
2023/03/24 07:20:07;;;;;;;26.17;3.97;;;;;;;16.27;58.85;100119.78;5045585;28;20052;-65
2023/03/24 07:22:37;;;;;;;19.10;2.40;;;;;;;16.74;57.64;100123.81;5047194;28;20083;-65
2023/03/24 07:25:04;;;;;;;18.40;2.87;;;;;;;16.81;56.21;100124.38;5046900;28;20040;-64
2023/03/24 07:27:33;;;;;;;15.27;2.67;;;;;;;17.04;57.11;100116.25;5046377;28;20029;-65
2023/03/24 07:30:00;;;;;;;12.80;2.73;;;;;;;16.62;57.74;100135.78;5050484;28;20059;-65
2023/03/24 07:32:28;;;;;;;13.60;2.97;;;;;;;17.18;56.39;100127.94;5050522;28;20025;-65
2023/03/24 07:34:54;;;;;;;20.13;2.63;;;;;;;16.36;56.62;100129.06;5049722;28;20075;-65
2023/03/24 07:37:20;;;;;;;28.33;3.30;;;;;;;16.66;58.17;100141.78;5050317;28;20028;-65
2023/03/24 07:39:46;;;;;;;14.17;2.90;;;;;;;16.82;56.74;100136.66;5049873;28;20036;-65
2023/03/24 07:42:11;;;;;;;17.77;2.83;;;;;;;17.38;55.03;100133.09;5049288;28;20112;-66
2023/03/24 07:44:37;;;;;;;13.37;2.57;;;;;;;17.70;54.17;100130.59;5050480;28;20094;-66
2023/03/24 07:47:05;;;;;;;15.43;2.77;;;;;;;17.43;54.25;100146.94;5051530;28;20080;-66
2023/03/24 07:49:31;;;;;;;12.57;2.67;;;;;;;16.78;55.51;100142.06;5051155;28;20041;-66
2023/03/24 07:51:57;;;;;;;16.73;3.83;;;;;;;16.12;58.92;100147.69;5051818;28;20115;-66
2023/03/24 07:54:23;;;;;;;13.93;2.23;;;;;;;16.72;57.92;100152.91;5050010;28;20510;-65
2023/03/24 07:56:49;;;;;;;13.43;2.50;;;;;;;16.77;56.64;100150.94;5050850;28;20100;-66
2023/03/24 07:59:16;;;;;;;13.27;2.60;;;;;;;16.96;57.04;100156.19;5051171;28;20059;-66
2023/03/24 08:01:41;;;;;;;23.87;3.67;;;;;;;16.97;56.35;100167.63;5050365;28;20075;-66
2023/03/24 08:04:10;;;;;;;15.17;2.67;;;;;;;16.92;56.07;100172.25;5050361;28;20028;-66
2023/03/24 08:06:36;;;;;;;19.07;2.77;;;;;;;16.81;54.79;100170.09;5050561;28;20052;-66
2023/03/24 08:09:01;;;;;;;16.80;3.83;;;;;;;17.05;54.42;100161.97;5049267;28;20538;-66
2023/03/24 08:11:27;;;;;;;18.70;3.27;;;;;;;17.77;53.27;100155.78;5051689;28;20102;-65
2023/03/24 08:13:52;;;;;;;21.90;3.17;;;;;;;18.13;52.08;100165.47;5049989;28;20028;-66
2023/03/24 08:16:18;;;;;;;21.27;3.60;;;;;;;17.59;53.15;100159.38;5049269;28;20431;-66
2023/03/24 08:18:43;;;;;;;14.88;2.95;;;;;;;18.85;49.25;100157.22;5050052;28;20035;-66
2023/03/24 08:21:08;;;;;;;10.57;2.50;;;;;;;18.90;48.97;100167.59;5049336;28;20029;-66
2023/03/24 08:23:35;;;;;;;18.92;2.83;;;;;;;18.87;49.96;100170.38;5049352;28;20060;-66
2023/03/24 08:26:01;;;;;;;21.30;2.85;;;;;;;19.82;47.24;100165.00;5051088;28;20025;-66
2023/03/24 08:28:27;;;;;;;16.30;3.05;;;;;;;20.31;45.93;100161.16;5049705;28;20040;-67
2023/03/24 08:30:52;;;;;;;11.18;2.40;;;;;;;18.39;47.74;100171.16;5048653;28;20555;-66
2023/03/24 08:33:17;;;;;;;13.15;2.53;;;;;;;18.10;48.96;100181.47;5050984;28;20103;-67
2023/03/24 08:35:45;;;;;;;14.75;3.03;;;;;;;18.34;48.74;100183.78;5051322;28;20132;-66
2023/03/24 08:38:11;;;;;;;16.85;2.47;;;;;;;17.53;50.56;100183.44;5048536;28;20043;-67
2023/03/24 08:40:39;;;;;;;17.30;2.72;;;;;;;18.53;49.67;100188.09;5050661;28;20025;-66
2023/03/24 08:43:09;;;;;;;11.90;2.47;;;;;;;18.59;48.37;100187.78;5050216;28;20025;-66
2023/03/24 08:45:35;;;;;;;12.15;2.63;;;;;;;16.86;51.52;100206.84;5049203;28;20020;-67
2023/03/24 08:48:04;;;;;;;17.58;3.33;;;;;;;17.74;50.80;100187.66;5049204;28;20041;-67
2023/03/24 08:50:33;;;;;;;16.80;3.03;;;;;;;17.67;51.49;100210.06;5065940;28;20048;-66
2023/03/24 08:53:01;;;;;;;19.15;2.65;;;;;;;18.46;49.72;100214.00;5048818;28;20458;-66
2023/03/24 08:55:26;;;;;;;19.63;3.08;;;;;;;18.05;50.36;100209.94;5048992;28;20409;-66
2023/03/24 08:57:52;;;;;;;16.05;3.63;;;;;;;18.36;49.58;100218.94;5049029;28;20013;-66
2023/03/24 09:00:19;;;;;;;12.27;2.95;;;;;;;18.57;48.51;100208.16;5049590;28;20569;-66
2023/03/24 09:02:50;;;;;;;15.30;3.22;;;;;;;19.60;45.91;100206.94;5049527;28;20079;-66
2023/03/24 09:05:18;;;;;;;11.80;2.35;;;;;;;18.21;47.02;100225.03;5048171;28;20106;-66
2023/03/24 09:07:43;;;;;;;18.52;3.38;;;;;;;18.52;47.95;100241.94;5049526;28;20543;-66
2023/03/24 09:10:10;;;;;;;22.02;3.50;;;;;;;18.61;46.99;100239.66;5048288;28;20013;-67
2023/03/24 09:12:36;;;;;;;17.35;2.83;;;;;;;18.34;46.69;100226.09;5048479;28;20032;-67
2023/03/24 09:15:07;;;;;;;15.20;2.08;;;;;;;18.97;45.31;100214.84;5048852;28;20052;-67
2023/03/24 09:17:33;;;;;;;13.10;2.35;;;;;;;19.27;44.35;100227.28;5049146;28;20042;-66
2023/03/24 09:19:58;;;;;;;13.73;2.13;;;;;;;18.70;45.48;100237.44;5049254;28;20025;-66
2023/03/24 09:22:24;;;;;;;12.82;2.30;;;;;;;18.59;44.98;100246.84;5048587;28;20032;-66
2023/03/24 09:24:49;;;;;;;17.48;2.22;;;;;;;18.87;44.90;100241.88;5050064;28;20118;-67
2023/03/24 09:27:16;;;;;;;15.45;2.15;;;;;;;19.06;43.77;100244.41;5049054;28;20031;-67
2023/03/24 09:29:41;;;;;;;15.63;2.45;;;;;;;19.14;43.49;100232.44;5050061;28;20028;-67
2023/03/24 09:32:07;;;;;;;18.02;2.58;;;;;;;20.30;43.23;100243.53;5048055;28;20050;-67
2023/03/24 09:34:32;;;;;;;12.60;2.30;;;;;;;19.86;43.69;100244.38;5049615;28;20032;-67
2023/03/24 09:36:59;;;;;;;16.92;2.72;;;;;;;21.32;41.37;100242.56;5049784;28;20024;-67
2023/03/24 09:39:25;;;;;;;20.75;2.60;;;;;;;20.63;42.42;100251.22;5049579;28;20017;-66
2023/03/24 09:41:51;;;;;;;17.45;2.55;;;;;;;20.61;41.16;100254.97;5049085;28;20492;-67
2023/03/24 09:44:48;;;;;;;16.38;2.47;;;;;;;20.35;42.11;100246.78;5049615;28;20078;-67
2023/03/24 09:47:49;;;;;;;14.82;2.28;;;;;;;20.26;42.77;100247.31;5025405;28;20044;-67
2023/03/24 09:50:24;;;;;;;22.63;3.33;;;;;;;21.74;40.37;100238.09;5040267;28;20068;-67
2023/03/24 09:52:55;;;;;;;20.60;2.67;;;;;;;21.86;39.74;100247.91;5047298;28;20036;-66
2023/03/24 09:55:25;;;;;;;14.38;2.53;;;;;;;21.50;39.96;100245.84;5047351;28;20033;-67
2023/03/24 09:57:54;;;;;;;17.35;2.83;;;;;;;21.34;39.91;100246.00;5047967;28;20028;-66
2023/03/24 10:00:20;;;;;;;14.55;2.47;;;;;;;21.13;39.79;100251.72;5047833;28;20062;-67
2023/03/24 10:02:46;;;;;;;20.45;3.42;;;;;;;22.05;38.76;100245.81;5048687;28;20121;-66
2023/03/24 10:05:19;;;;;;;15.75;2.42;;;;;;;21.88;39.96;100257.63;5049080;28;20033;-67
2023/03/24 10:08:08;;;;;;;13.18;2.70;;;;;;;21.40;39.13;100245.59;5048101;28;20480;-67
2023/03/24 10:10:52;;;;;;;14.50;2.40;;;;;;;22.67;37.38;100246.00;5026903;28;20045;-67
2023/03/24 10:13:24;;;;;;;13.05;2.42;;;;;;;22.00;38.43;100238.16;5047596;28;20025;-66
2023/03/24 10:16:24;;;;;;;18.23;2.10;;;;;;;22.29;37.79;100240.66;5047047;28;20039;-66
2023/03/24 10:18:59;;;;;;;11.60;2.40;;;;;;;22.72;36.96;100251.00;5026877;28;20535;-67
2023/03/24 10:21:26;;;;;;;14.82;3.35;;;;;;;22.27;37.39;100251.41;5047290;28;20033;-66
2023/03/24 10:24:22;;;;;;;13.30;2.50;;;;;;;22.85;36.79;100243.00;5048286;28;20025;-66
2023/03/24 10:26:53;;;;;;;13.93;2.50;;;;;;;22.16;37.96;100244.16;5047949;28;20416;-67
2023/03/24 10:29:34;;;;;;;10.15;2.58;;;;;;;21.94;38.26;100234.13;5048387;28;20024;-66
2023/03/24 10:32:05;;;;;;;10.13;3.08;;;;;;;20.31;41.00;100239.94;5047529;28;20028;-67
2023/03/24 10:34:33;;;;;;;12.52;2.97;;;;;;;18.60;44.37;100258.25;5047786;28;20119;-67
2023/03/24 10:37:01;;;;;;;14.18;2.40;;;;;;;20.45;41.75;100261.19;5046846;28;20119;-66
2023/03/24 10:39:29;;;;;;;13.48;2.60;;;;;;;19.31;43.14;100254.47;5047320;28;20531;-66
2023/03/24 10:41:56;;;;;;;25.75;2.83;;;;;;;19.92;42.95;100262.56;5047249;28;20040;-67
2023/03/24 10:44:22;;;;;;;22.85;3.17;;;;;;;20.47;41.85;100251.34;5046368;28;20056;-66
2023/03/24 10:46:51;;;;;;;13.88;2.60;;;;;;;19.85;41.80;100248.78;5049041;28;20067;-66
2023/03/24 10:49:19;;;;;;;15.27;1.92;;;;;;;19.92;42.36;100260.78;5046970;28;20057;-67
2023/03/24 10:51:50;;;;;;;12.73;2.22;;;;;;;21.06;41.01;100266.38;5048071;28;20104;-67
2023/03/24 10:54:21;;;;;;;14.10;2.40;;;;;;;20.78;40.39;100254.78;5048434;28;20040;-67
2023/03/24 10:56:50;;;;;;;14.00;2.50;;;;;;;22.39;38.98;100244.41;5048488;28;20063;-67
2023/03/24 10:59:24;;;;;;;8.00;1.80;;;;;;;20.77;40.25;100258.41;5046423;28;20021;-66
2023/03/24 11:01:57;;;;;;;18.88;2.88;;;;;;;20.62;40.81;100246.03;5048450;28;20056;-66
2023/03/24 11:04:23;;;;;;;12.00;2.50;;;;;;;20.36;41.23;100259.09;5048326;28;20229;-66
2023/03/24 11:06:57;;;;;;;12.10;1.90;;;;;;;20.51;40.94;100254.63;5052201;28;20037;-67
2023/03/24 11:09:23;;;;;;;9.93;2.42;;;;;;;21.46;39.84;100261.16;5050911;28;20402;-66
2023/03/24 11:11:51;;;;;;;8.20;2.10;;;;;;;21.56;40.45;100260.59;5052025;28;20035;-66
2023/03/24 11:14:24;;;;;;;16.20;2.83;;;;;;;22.85;38.90;100261.66;5052461;28;20404;-67
2023/03/24 11:16:49;;;;;;;;;;;;;;;22.20;38.86;100261.63;5051476;28;20048;-67
2023/03/24 11:19:23;;;;;;;15.85;3.50;;;;;;;23.06;37.06;100259.28;5051595;28;19908;-67
2023/03/24 11:21:51;;;;;;;12.23;2.17;;;;;;;21.54;38.61;100257.16;5052266;28;20071;-65
2023/03/24 11:24:19;;;;;;;12.63;1.95;;;;;;;19.82;41.88;100265.78;5052009;28;20102;-65
2023/03/24 11:27:00;;;;;;;8.35;1.58;;;;;;;19.47;40.95;100265.09;5051840;28;20408;-65
2023/03/24 11:29:29;;;;;;;8.75;1.48;;;;;;;20.78;40.52;100270.72;5050636;28;20114;-66
2023/03/24 11:31:57;;;;;;;7.10;1.63;;;;;;;21.87;37.01;100264.72;5050639;28;20024;-65
2023/03/24 11:34:37;;;;;;;6.28;1.55;;;;;;;21.77;37.43;100268.97;5049914;28;20033;-66
2023/03/24 11:37:20;;;;;;;16.77;1.83;;;;;;;21.72;37.51;100276.38;5050326;28;20037;-66
2023/03/24 11:40:06;;;;;;;;;;;;;;;21.95;36.60;100264.22;5051044;28;20074;-65